Time;durP1;ratioP1;P1;durP2;ratioP2;P2;SDS_P1;SDS_P2;PMS_P1;PMS_P2;Temp;Humidity;BMP_temperature;BMP_pressure;BME280_temperature;BME280_humidity;BME280_pressure;Samples;Min_cycle;Max_cycle;Signal;HPM_P1;HPM_P2
2021/12/21 00:04:30;;;;;;;10.40;7.20;;;;;;;-1.53;78.07;100391.96;207588;1316;139415;-65
2021/12/21 00:09:33;;;;;;;18.20;9.10;;;;;;;-1.58;78.04;100388.12;207548;1317;141366;-66
2021/12/21 00:15:32;;;;;;;12.30;4.80;;;;;;;-1.72;78.06;100392.12;207295;1316;141039;-65
2021/12/21 00:25:41;;;;;;;27.40;12.30;;;;;;;-1.86;78.14;100392.59;206995;1322;140503;-66
2021/12/21 00:30:45;;;;;;;11.30;6.90;;;;;;;-1.93;78.10;100394.95;207890;1316;140289;-66
2021/12/21 00:35:47;;;;;;;7.70;4.50;;;;;;;-1.98;78.23;100402.58;207768;1316;140585;-66
2021/12/21 00:40:50;;;;;;;6.80;5.00;;;;;;;-2.07;78.26;100408.20;209081;1317;160771;-66
2021/12/21 00:45:52;;;;;;;6.00;3.60;;;;;;;-2.16;78.28;100412.85;207387;1316;140633;-66
2021/12/21 00:50:58;;;;;;;7.80;4.50;;;;;;;-2.25;78.24;100410.04;209393;1316;141819;-66
2021/12/21 00:56:00;;;;;;;10.80;5.10;;;;;;;-2.25;78.32;100407.23;209382;1317;142711;-66
2021/12/21 01:01:05;;;;;;;6.40;3.90;;;;;;;-2.26;78.13;100412.23;209207;1318;140926;-66
2021/12/21 01:06:15;;;;;;;6.00;4.00;;;;;;;-2.25;78.54;100414.02;209062;1317;139893;-66
2021/12/21 01:11:24;;;;;;;7.90;4.50;;;;;;;-2.25;78.53;100417.14;208888;1317;140597;-68
2021/12/21 01:21:44;;;;;;;8.40;3.90;;;;;;;-2.26;78.43;100419.98;207786;1316;140731;-66
2021/12/21 01:32:31;;;;;;;7.10;3.20;;;;;;;-2.22;78.56;100427.55;208137;1313;141643;-66
2021/12/21 01:53:46;;;;;;;8.80;4.00;;;;;;;-2.21;79.02;100428.77;206935;1319;139633;-65
2021/12/21 01:58:51;;;;;;;7.90;3.60;;;;;;;-2.20;78.98;100425.45;207106;1318;140072;-66
2021/12/21 02:03:54;;;;;;;4.20;2.80;;;;;;;-2.22;79.00;100425.98;207719;1316;139148;-65
2021/12/21 02:08:57;;;;;;;4.30;2.80;;;;;;;-2.26;78.91;100424.94;207572;1316;139311;-66
2021/12/21 02:14:01;;;;;;;9.90;3.70;;;;;;;-2.31;78.94;100424.30;207897;1316;139115;-66
2021/12/21 02:19:24;;;;;;;6.60;3.50;;;;;;;-2.30;78.62;100426.69;207638;1314;139985;-65
2021/12/21 02:29:58;;;;;;;9.20;3.90;;;;;;;-2.35;78.83;100423.27;207092;1317;139602;-66
2021/12/21 02:35:01;;;;;;;11.30;4.70;;;;;;;-2.47;78.59;100426.22;208004;1316;139081;-66
2021/12/21 02:40:05;;;;;;;6.50;3.50;;;;;;;-2.58;78.78;100425.81;208513;1319;141339;-67
2021/12/21 02:45:07;;;;;;;6.70;3.70;;;;;;;-2.66;78.71;100428.96;208701;1318;140133;-66
2021/12/21 02:50:10;;;;;;;8.40;4.60;;;;;;;-2.62;78.62;100437.98;209005;1319;139894;-66
2021/12/21 02:55:14;;;;;;;8.50;3.70;;;;;;;-2.58;78.89;100441.52;208492;1318;139874;-66
2021/12/21 03:00:17;;;;;;;5.90;3.10;;;;;;;-2.57;78.81;100442.24;208196;1316;141363;-65
2021/12/21 03:05:20;;;;;;;4.50;2.50;;;;;;;-2.56;78.99;100442.85;208285;1318;139385;-66
2021/12/21 03:10:26;;;;;;;8.40;4.80;;;;;;;-2.53;79.19;100440.03;208067;1317;139499;-66
2021/12/21 03:15:30;;;;;;;8.20;3.80;;;;;;;-2.42;79.21;100441.04;207998;1317;140915;-65
2021/12/21 03:20:33;;;;;;;12.20;3.80;;;;;;;-2.31;79.23;100441.86;209003;1318;140906;-66
2021/12/21 03:25:40;;;;;;;4.90;2.40;;;;;;;-2.25;78.97;100439.98;207956;1316;139296;-65
2021/12/21 03:30:44;;;;;;;3.80;3.10;;;;;;;-2.22;78.98;100440.40;207776;1316;140273;-65
2021/12/21 03:35:47;;;;;;;5.20;3.30;;;;;;;-2.23;78.92;100443.91;207782;1316;139615;-66
2021/12/21 03:41:00;;;;;;;5.30;3.30;;;;;;;-2.17;78.95;100446.35;207642;1318;140692;-65
2021/12/21 03:46:10;;;;;;;7.60;4.60;;;;;;;-2.15;78.94;100450.09;207765;1317;140487;-66
2021/12/21 03:51:17;;;;;;;4.30;2.90;;;;;;;-2.17;78.88;100455.94;207777;1317;140211;-66
2021/12/21 04:01:41;;;;;;;4.80;2.90;;;;;;;-2.33;78.70;100453.36;207424;1316;139392;-65
2021/12/21 04:06:47;;;;;;;3.80;3.00;;;;;;;-2.35;78.67;100457.05;207690;1319;139807;-65
2021/12/21 04:11:51;;;;;;;6.70;3.80;;;;;;;-2.43;78.66;100459.45;207336;1317;139489;-65
2021/12/21 04:16:54;;;;;;;5.60;3.00;;;;;;;-2.51;78.61;100462.98;208129;1317;139329;-65
2021/12/21 04:21:56;;;;;;;7.50;4.00;;;;;;;-2.64;78.57;100472.08;208815;1318;139396;-66
2021/12/21 04:27:00;;;;;;;4.80;2.50;;;;;;;-2.74;78.35;100479.73;207855;1319;140074;-65
2021/12/21 04:32:04;;;;;;;4.80;2.50;;;;;;;-2.81;78.46;100488.31;207173;1317;140031;-65
2021/12/21 04:37:08;;;;;;;4.10;3.20;;;;;;;-2.82;78.34;100492.27;207257;1318;140138;-65
2021/12/21 04:42:12;;;;;;;5.50;3.00;;;;;;;-2.83;78.42;100492.73;207313;1318;141003;-66
2021/12/21 04:47:15;;;;;;;5.10;3.00;;;;;;;-2.84;78.64;100494.86;207667;1315;140498;-65
2021/12/21 04:52:18;;;;;;;4.80;2.80;;;;;;;-2.87;78.43;100499.12;207808;1316;139991;-65
2021/12/21 04:57:25;;;;;;;5.10;3.00;;;;;;;-2.94;78.19;100504.41;208917;1313;140381;-65
2021/12/21 05:02:28;;;;;;;3.10;2.10;;;;;;;-2.95;78.11;100509.16;206893;1316;140369;-65
2021/12/21 05:07:35;;;;;;;5.50;2.70;;;;;;;-2.87;78.42;100517.73;209749;1316;139967;-67
2021/12/21 05:12:42;;;;;;;4.80;3.30;;;;;;;-2.78;78.36;100526.16;208980;1318;139849;-66
2021/12/21 05:17:45;;;;;;;5.30;2.70;;;;;;;-2.74;78.35;100527.55;209051;1316;140193;-67
2021/12/21 05:22:55;;;;;;;4.00;2.90;;;;;;;-2.68;78.15;100529.36;208699;1316;139423;-66
2021/12/21 05:28:00;;;;;;;5.30;2.90;;;;;;;-2.62;78.25;100523.08;207699;1318;139814;-68
2021/12/21 05:33:04;;;;;;;6.70;3.80;;;;;;;-2.66;77.91;100530.03;207986;1319;139427;-67
2021/12/21 05:38:12;;;;;;;7.00;3.60;;;;;;;-2.73;77.84;100532.36;207990;1316;139542;-65
2021/12/21 05:43:17;;;;;;;7.60;4.30;;;;;;;-2.82;77.82;100534.70;208674;1317;140192;-66
2021/12/21 05:48:20;;;;;;;5.30;2.50;;;;;;;-2.91;77.91;100535.10;207053;1317;139614;-65
2021/12/21 05:53:23;;;;;;;7.20;3.60;;;;;;;-2.96;78.02;100541.61;207678;1317;387610;-69
2021/12/21 05:58:26;;;;;;;10.20;2.90;;;;;;;-2.93;78.11;100549.39;207364;1318;139820;-65
2021/12/21 06:03:28;;;;;;;6.40;4.10;;;;;;;-2.89;78.01;100546.56;207240;1318;210169;-65
2021/12/21 06:08:34;;;;;;;7.80;3.50;;;;;;;-2.90;77.80;100552.05;206866;1317;139736;-64
2021/12/21 06:30:17;;;;;;;9.50;5.60;;;;;;;-3.23;78.01;100570.63;206110;1317;140290;-69
2021/12/21 06:35:23;;;;;;;6.20;3.10;;;;;;;-3.21;78.11;100570.30;207303;1316;141967;-65
2021/12/21 06:40:26;;;;;;;5.20;3.20;;;;;;;-3.19;78.00;100570.84;207455;1319;139428;-65
2021/12/21 06:56:06;;;;;;;11.80;3.60;;;;;;;-3.21;78.61;100592.53;207378;1318;210966;-67
2021/12/21 07:01:09;;;;;;;4.90;2.10;;;;;;;-3.20;78.47;100597.55;207119;1317;140798;-67
2021/12/21 07:06:13;;;;;;;5.30;3.10;;;;;;;-3.24;78.43;100600.77;209001;1317;139511;-71
2021/12/21 07:11:27;;;;;;;5.10;3.70;;;;;;;-3.23;78.33;100597.09;208506;1319;150855;-70
2021/12/21 07:22:03;;;;;;;6.50;3.30;;;;;;;-3.00;78.21;100589.48;207568;1318;142121;-69
2021/12/21 07:27:07;;;;;;;8.90;4.40;;;;;;;-2.93;78.16;100594.90;209042;1318;140924;-69
2021/12/21 07:32:12;;;;;;;11.20;5.70;;;;;;;-2.84;78.39;100605.84;208109;1318;140475;-69
2021/12/21 07:37:15;;;;;;;8.00;4.90;;;;;;;-2.82;78.10;100598.90;208999;1318;140299;-69
2021/12/21 07:42:19;;;;;;;12.40;6.50;;;;;;;-2.83;77.69;100601.94;207067;1318;141497;-66
2021/12/21 07:47:22;;;;;;;10.40;5.50;;;;;;;-2.80;77.70;100609.85;207288;1318;140697;-65
2021/12/21 07:52:25;;;;;;;13.50;7.20;;;;;;;-2.75;77.78;100621.90;207811;1318;142749;-66
2021/12/21 07:57:27;;;;;;;12.20;7.90;;;;;;;-2.67;77.98;100620.61;206979;1316;141745;-66
2021/12/21 08:02:30;;;;;;;9.80;5.40;;;;;;;-2.60;78.08;100628.36;207953;1317;140907;-66
2021/12/21 08:07:45;;;;;;;12.00;7.40;;;;;;;-2.55;78.14;100627.59;207097;1318;143593;-66
2021/12/21 08:12:49;;;;;;;11.60;7.30;;;;;;;-2.52;78.17;100632.93;207223;1318;140311;-65
2021/12/21 08:18:02;;;;;;;14.20;8.00;;;;;;;-2.48;78.23;100634.45;208335;1318;141004;-66
2021/12/21 08:23:08;;;;;;;11.80;7.80;;;;;;;-2.45;78.14;100628.49;206949;1318;140398;-65
2021/12/21 08:28:15;;;;;;;11.40;7.30;;;;;;;-2.36;78.24;100623.19;206830;1318;140247;-65
2021/12/21 08:33:19;;;;;;;12.70;6.80;;;;;;;-2.25;77.96;100634.61;207299;1318;151601;-66
2021/12/21 08:38:26;;;;;;;11.10;6.10;;;;;;;-2.10;78.05;100646.02;206894;1318;141863;-66
2021/12/21 08:43:31;;;;;;;8.80;6.30;;;;;;;-2.01;78.06;100646.77;207965;1318;140913;-66
2021/12/21 08:48:36;;;;;;;13.10;6.30;;;;;;;-1.96;77.90;100645.86;206881;1318;139107;-65
2021/12/21 08:53:42;;;;;;;16.50;7.90;;;;;;;-1.90;77.95;100647.26;207860;1318;139741;-65
2021/12/21 08:58:59;;;;;;;10.60;6.00;;;;;;;-1.85;77.75;100652.70;207780;1318;139870;-66
2021/12/21 09:04:03;;;;;;;12.70;5.70;;;;;;;-1.83;77.48;100644.91;208254;1318;140293;-66
2021/12/21 09:09:14;;;;;;;9.00;6.30;;;;;;;-1.72;77.54;100654.20;206780;1317;140285;-66
2021/12/21 09:14:21;;;;;;;11.30;5.40;;;;;;;-1.58;77.61;100656.30;208609;1318;140039;-66
2021/12/21 09:19:42;;;;;;;14.40;6.30;;;;;;;-1.50;77.32;100658.21;208761;1317;141399;-66
2021/12/21 09:24:46;;;;;;;10.90;6.90;;;;;;;-1.42;77.25;100665.32;209401;1318;139879;-66
2021/12/21 09:29:49;;;;;;;12.80;6.00;;;;;;;-1.35;77.00;100669.27;208088;1318;140902;-65
2021/12/21 09:34:55;;;;;;;11.20;6.40;;;;;;;-1.30;76.86;100664.14;208451;1318;139781;-65
2021/12/21 09:39:59;;;;;;;8.20;4.90;;;;;;;-1.25;76.82;100664.86;208564;1319;141366;-65
2021/12/21 09:45:07;;;;;;;9.20;8.10;;;;;;;-1.09;76.57;100659.93;208441;1318;140444;-65
2021/12/21 09:50:15;;;;;;;10.50;6.00;;;;;;;-1.01;76.04;100661.71;208939;1316;139715;-65
2021/12/21 09:55:19;;;;;;;13.80;8.60;;;;;;;-1.02;75.93;100668.18;208866;1316;139211;-66
2021/12/21 10:00:27;;;;;;;9.60;5.90;;;;;;;-0.98;75.97;100659.87;208131;1318;140197;-65
2021/12/21 10:05:39;;;;;;;11.40;6.30;;;;;;;-0.94;75.76;100659.37;206883;1316;139281;-65
2021/12/21 10:10:45;;;;;;;7.30;4.70;;;;;;;-0.90;75.94;100652.82;207714;1316;139263;-64
2021/12/21 10:15:54;;;;;;;5.50;4.20;;;;;;;-0.88;75.32;100654.77;207410;1316;139588;-65
2021/12/21 10:20:59;;;;;;;13.00;4.90;;;;;;;-0.83;74.92;100658.96;207599;1318;141522;-65
2021/12/21 10:26:12;;;;;;;5.80;4.20;;;;;;;-0.83;74.75;100657.25;207532;1313;141056;-65
2021/12/21 10:31:32;;;;;;;8.20;5.60;;;;;;;-0.81;74.76;100649.73;207465;1318;139269;-64
2021/12/21 10:36:51;;;;;;;11.60;5.30;;;;;;;-0.78;74.77;100642.98;207337;1317;140721;-65
2021/12/21 10:42:03;;;;;;;8.30;6.20;;;;;;;-0.64;74.90;100643.16;207235;1318;140028;-65
2021/12/21 10:47:06;;;;;;;7.40;5.00;;;;;;;-0.51;74.88;100641.61;206803;1318;141006;-65
2021/12/21 10:52:14;;;;;;;6.80;5.10;;;;;;;-0.47;74.61;100630.85;206883;1318;140525;-64
2021/12/21 10:57:23;;;;;;;10.70;5.20;;;;;;;-0.44;74.08;100634.46;207002;1316;140831;-66
2021/12/21 11:02:33;;;;;;;11.90;8.50;;;;;;;-0.50;74.13;100629.76;207872;1318;141657;-66
2021/12/21 11:07:52;;;;;;;9.70;5.80;;;;;;;-0.41;74.23;100639.61;208505;1317;141104;-69
2021/12/21 11:13:09;;;;;;;8.20;5.50;;;;;;;-0.35;74.26;100637.09;208434;1316;141538;-66
2021/12/21 11:18:13;;;;;;;10.50;5.60;;;;;;;-0.32;74.04;100638.64;208206;1317;141842;-66
2021/12/21 11:23:19;;;;;;;5.30;4.50;;;;;;;-0.26;74.15;100637.35;207623;1317;140852;-66
2021/12/21 11:28:26;;;;;;;12.00;6.40;;;;;;;-0.23;73.81;100633.92;207980;1318;141436;-66
2021/12/21 11:33:35;;;;;;;13.40;6.10;;;;;;;-0.16;73.83;100632.38;208576;1317;140931;-69
2021/12/21 11:38:39;;;;;;;14.90;6.40;;;;;;;-0.14;73.69;100628.66;207839;1319;140629;-69
2021/12/21 11:43:48;;;;;;;11.20;6.70;;;;;;;-0.12;73.84;100626.09;209094;1318;141539;-69
2021/12/21 11:49:13;;;;;;;7.30;4.90;;;;;;;-0.09;73.80;100621.77;208652;1319;139586;-68
2021/12/21 11:54:22;;;;;;;6.80;4.40;;;;;;;-0.12;73.36;100622.16;207238;1319;140968;-68
2021/12/21 11:59:25;;;;;;;5.90;3.70;;;;;;;-0.15;73.02;100621.77;208106;1318;140752;-69
2021/12/21 12:04:27;;;;;;;7.10;3.60;;;;;;;-0.23;72.91;100620.33;207814;1318;140264;-68
2021/12/21 12:09:37;;;;;;;9.10;5.10;;;;;;;-0.38;72.78;100614.98;206882;1318;139879;-68
2021/12/21 12:14:42;;;;;;;7.60;4.50;;;;;;;-0.45;73.04;100618.09;207846;1319;140812;-67
2021/12/21 12:20:25;;;;;;;10.30;4.40;;;;;;;-0.44;73.16;100613.20;207720;1316;139676;-70
2021/12/21 12:25:34;;;;;;;10.60;5.30;;;;;;;-0.36;72.99;100617.42;207698;1318;140330;-66
2021/12/21 12:30:51;;;;;;;11.90;5.50;;;;;;;-0.41;73.06;100612.21;207675;1318;141463;-64
2021/12/21 12:36:03;;;;;;;8.30;4.20;;;;;;;-0.45;73.25;100610.31;207214;1316;140346;-64
2021/12/21 12:41:06;;;;;;;5.40;3.00;;;;;;;-0.50;73.28;100609.88;206853;1317;141461;-66
2021/12/21 12:46:36;;;;;;;9.40;4.40;;;;;;;-0.51;73.33;100609.44;208475;1316;139533;-64
2021/12/21 12:51:40;;;;;;;9.00;4.80;;;;;;;-0.50;73.12;100613.73;207142;1317;141070;-65
2021/12/21 12:56:43;;;;;;;13.80;6.00;;;;;;;-0.51;73.27;100615.69;208120;1316;140047;-65
2021/12/21 13:01:52;;;;;;;5.90;4.60;;;;;;;-0.51;73.20;100616.80;208169;1317;139804;-65
2021/12/21 13:06:55;;;;;;;7.80;4.70;;;;;;;-0.56;73.24;100615.71;206858;1317;140150;-65
2021/12/21 13:11:57;;;;;;;4.90;3.80;;;;;;;-0.65;73.50;100621.43;207478;1316;139079;-68
2021/12/21 13:17:03;;;;;;;8.80;5.90;;;;;;;-0.71;73.45;100624.54;208297;1319;139720;-66
2021/12/21 13:22:06;;;;;;;10.00;6.10;;;;;;;-0.69;73.41;100617.93;207827;1319;140960;-67
2021/12/21 13:27:11;;;;;;;11.30;6.60;;;;;;;-0.71;73.34;100619.99;208927;1317;140517;-66
2021/12/21 13:32:17;;;;;;;10.50;5.60;;;;;;;-0.72;73.51;100622.92;208716;1316;139549;-67
2021/12/21 13:37:21;;;;;;;10.20;6.40;;;;;;;-0.80;73.24;100623.09;208800;1317;139498;-69
2021/12/21 13:42:27;;;;;;;12.40;5.50;;;;;;;-0.82;73.36;100623.98;209166;1319;151122;-69
2021/12/21 13:47:34;;;;;;;11.70;7.70;;;;;;;-0.89;73.24;100628.83;208306;1319;140483;-68
2021/12/21 13:52:43;;;;;;;11.20;7.90;;;;;;;-0.94;73.44;100629.48;208293;1314;610093;-68
2021/12/21 13:57:51;;;;;;;13.40;7.60;;;;;;;-1.00;73.57;100633.51;207984;1316;140213;-68
2021/12/21 14:03:06;;;;;;;14.20;7.90;;;;;;;-1.03;73.77;100636.09;208928;1320;140554;-67
2021/12/21 14:08:15;;;;;;;10.40;6.00;;;;;;;-1.06;73.89;100630.38;208102;1315;140992;-67
2021/12/21 14:13:31;;;;;;;10.00;7.80;;;;;;;-1.08;73.77;100627.70;207446;1321;140733;-66
2021/12/21 14:18:41;;;;;;;15.80;7.70;;;;;;;-1.12;73.86;100631.95;207708;1318;139391;-67
2021/12/21 14:23:48;;;;;;;11.80;7.40;;;;;;;-1.16;74.18;100626.44;207523;1317;140902;-66
2021/12/21 14:29:09;;;;;;;15.40;8.00;;;;;;;-1.24;74.11;100624.02;207622;1318;142114;-67
2021/12/21 14:34:23;;;;;;;16.10;7.20;;;;;;;-1.36;74.32;100625.75;207278;1320;141077;-66
2021/12/21 14:39:32;;;;;;;15.90;9.30;;;;;;;-1.39;74.26;100625.48;207257;1316;140842;-69
2021/12/21 14:45:03;;;;;;;;;;;;;;;;;;;;;
2021/12/21 14:50:11;;;;;;;16.70;10.00;;;;;;;-1.41;74.58;100618.39;206960;1316;140406;-71
2021/12/21 14:55:23;;;;;;;26.30;10.40;;;;;;;-1.46;74.73;100613.36;207036;1316;141031;-68
2021/12/21 15:00:33;;;;;;;20.30;10.30;;;;;;;-1.51;74.92;100610.19;207258;1318;140515;-69
2021/12/21 15:05:41;;;;;;;15.80;7.50;;;;;;;-1.53;75.30;100608.31;207433;1318;141893;-66
2021/12/21 15:10:45;;;;;;;23.40;10.50;;;;;;;-1.54;75.21;100606.30;207873;1318;141124;-69
2021/12/21 15:15:50;;;;;;;18.70;10.50;;;;;;;-1.52;75.24;100605.73;207718;1318;141838;-69
2021/12/21 15:20:53;;;;;;;19.00;10.70;;;;;;;-1.50;75.15;100608.51;207570;1319;141206;-68
2021/12/21 15:25:58;;;;;;;29.50;13.50;;;;;;;-1.50;75.36;100603.42;207958;1317;140331;-68
2021/12/21 15:31:01;;;;;;;26.00;11.80;;;;;;;-1.53;75.31;100599.94;207024;1316;141463;-71
2021/12/21 15:36:04;;;;;;;24.70;15.90;;;;;;;-1.56;75.45;100602.14;208278;1319;140712;-69
2021/12/21 15:41:08;;;;;;;19.50;12.70;;;;;;;-1.58;75.48;100599.20;207818;1318;139822;-71
2021/12/21 15:46:13;;;;;;;26.80;12.90;;;;;;;-1.63;75.58;100594.95;207927;1320;139832;-69
2021/12/21 15:51:18;;;;;;;19.40;11.80;;;;;;;-1.69;75.55;100596.09;209150;1317;141643;-72
2021/12/21 15:56:21;;;;;;;17.00;10.10;;;;;;;-1.72;75.50;100599.98;207971;1318;141717;-71
2021/12/21 16:01:28;;;;;;;24.80;11.10;;;;;;;-1.69;75.28;100603.27;208822;1319;141169;-72
2021/12/21 16:06:31;;;;;;;19.60;10.40;;;;;;;-1.69;75.35;100604.12;207403;1318;142707;-67
2021/12/21 16:11:35;;;;;;;25.40;13.40;;;;;;;-1.70;75.39;100608.41;207325;1318;140832;-68
2021/12/21 16:16:41;;;;;;;22.40;12.60;;;;;;;-1.74;75.42;100606.14;207422;1318;139823;-67
2021/12/21 16:21:44;;;;;;;23.40;11.80;;;;;;;-1.80;75.31;100604.19;208378;1316;139394;-69
2021/12/21 16:27:10;;;;;;;19.90;10.20;;;;;;;-1.82;75.47;100607.38;207409;1316;140601;-70
2021/12/21 16:32:14;;;;;;;24.90;10.80;;;;;;;-1.88;75.44;100610.65;206752;1318;140228;-67
2021/12/21 16:37:18;;;;;;;20.00;11.00;;;;;;;-1.86;75.52;100612.98;207380;1318;141303;-67
2021/12/21 16:42:21;;;;;;;23.40;10.50;;;;;;;-1.81;75.62;100612.96;206959;1318;141614;-67
2021/12/21 16:47:26;;;;;;;20.60;11.40;;;;;;;-1.80;75.67;100612.17;206981;1318;140617;-65
2021/12/21 16:52:29;;;;;;;22.90;10.90;;;;;;;-1.80;75.70;100609.58;207021;1317;141277;-67
2021/12/21 16:57:34;;;;;;;16.50;10.40;;;;;;;-1.82;75.77;100608.58;206807;1317;139573;-67
2021/12/21 17:02:37;;;;;;;18.30;12.30;;;;;;;-1.84;75.61;100609.23;206860;1317;151473;-66
2021/12/21 17:07:40;;;;;;;30.90;14.60;;;;;;;-1.82;75.60;100612.38;207435;1318;139972;-69
2021/12/21 17:12:43;;;;;;;27.50;11.40;;;;;;;-1.81;75.84;100611.40;207630;1318;140748;-68
2021/12/21 17:17:47;;;;;;;18.00;11.70;;;;;;;-1.83;75.96;100614.02;207648;1318;139472;-69
2021/12/21 17:22:50;;;;;;;27.60;12.90;;;;;;;-1.84;75.85;100616.55;206725;1318;139777;-66
2021/12/21 17:27:55;;;;;;;25.40;11.80;;;;;;;-1.87;75.85;100620.90;206676;1318;139647;-64
2021/12/21 17:33:01;;;;;;;21.50;13.00;;;;;;;-1.92;75.95;100620.77;207356;1318;140661;-68
2021/12/21 17:38:04;;;;;;;26.80;13.80;;;;;;;-1.97;75.86;100622.40;207297;1317;139876;-69
2021/12/21 17:43:08;;;;;;;20.60;10.80;;;;;;;-2.00;76.01;100630.50;208294;1316;141193;-69
2021/12/21 17:48:11;;;;;;;22.60;12.10;;;;;;;-1.94;75.93;100629.84;209146;1318;141129;-69
2021/12/21 17:53:23;;;;;;;21.70;13.30;;;;;;;-1.87;75.98;100628.55;208811;1318;140222;-74
2021/12/21 17:58:30;;;;;;;29.90;13.00;;;;;;;-1.86;76.09;100626.85;207318;1318;142966;-73
2021/12/21 18:03:32;;;;;;;24.80;14.40;;;;;;;-1.86;75.83;100635.20;208790;1317;140996;-70
2021/12/21 18:08:36;;;;;;;30.50;14.70;;;;;;;-1.89;75.93;100637.75;207759;1318;140814;-69
2021/12/21 18:13:39;;;;;;;25.30;13.70;;;;;;;-1.90;75.83;100637.15;208574;1316;140046;-69
2021/12/21 18:18:46;;;;;;;22.50;12.50;;;;;;;-1.92;75.94;100634.16;207474;1319;140837;-69
2021/12/21 18:23:50;;;;;;;24.70;12.20;;;;;;;-1.89;75.91;100634.32;208112;1316;140659;-68
2021/12/21 18:28:53;;;;;;;24.10;14.70;;;;;;;-1.85;76.05;100635.48;207336;1316;139510;-68
2021/12/21 18:33:56;;;;;;;27.20;14.20;;;;;;;-1.83;76.12;100629.94;207452;1317;140271;-68
2021/12/21 18:39:00;;;;;;;30.50;13.30;;;;;;;-1.84;75.96;100634.54;207014;1317;139625;-69
2021/12/21 18:44:05;;;;;;;22.50;15.60;;;;;;;-1.88;76.14;100632.83;207992;1317;139867;-69
2021/12/21 18:49:22;;;;;;;;;;;;;;;;;;;;;
2021/12/21 18:54:26;;;;;;;25.50;14.20;;;;;;;-1.88;76.39;100635.77;207961;1319;140538;-68
2021/12/21 18:59:30;;;;;;;28.60;13.80;;;;;;;-1.84;76.16;100637.84;206973;1316;140140;-67
2021/12/21 19:04:46;;;;;;;;;;;;;;;;;;;;;
2021/12/21 19:09:52;;;;;;;25.30;14.20;;;;;;;-1.80;76.21;100648.07;207743;1317;140352;-70
2021/12/21 19:14:55;;;;;;;20.30;10.30;;;;;;;-1.76;76.65;100649.36;208017;1318;139949;-69
2021/12/21 19:20:01;;;;;;;21.60;10.20;;;;;;;-1.77;76.66;100651.99;207370;1317;140529;-68
2021/12/21 19:25:06;;;;;;;17.70;9.80;;;;;;;-1.78;76.73;100652.65;207818;1316;139576;-68
2021/12/21 19:30:15;;;;;;;15.80;9.80;;;;;;;-1.80;76.74;100652.30;208452;1316;141300;-68
2021/12/21 19:35:19;;;;;;;22.30;11.70;;;;;;;-1.77;76.72;100648.41;207675;1316;140431;-68
2021/12/21 19:40:22;;;;;;;19.40;9.10;;;;;;;-1.72;76.88;100644.12;208165;1317;141363;-68
2021/12/21 19:45:27;;;;;;;23.50;11.20;;;;;;;-1.66;77.06;100646.75;207040;1318;139761;-67
2021/12/21 19:50:31;;;;;;;17.60;10.50;;;;;;;-1.64;77.04;100655.42;208187;1317;140727;-68
2021/12/21 19:55:34;;;;;;;19.20;9.40;;;;;;;-1.67;77.03;100657.09;208109;1318;140617;-67
2021/12/21 20:00:38;;;;;;;25.80;12.50;;;;;;;-1.75;77.07;100661.94;208976;1316;139800;-68
2021/12/21 20:05:43;;;;;;;21.10;9.70;;;;;;;-1.77;76.93;100658.95;208573;1316;140414;-68
2021/12/21 20:10:54;;;;;;;25.30;12.00;;;;;;;-1.69;77.09;100664.95;208766;1318;142400;-67
2021/12/21 20:15:58;;;;;;;27.40;12.20;;;;;;;-1.67;77.14;100670.02;208045;1318;139654;-68
2021/12/21 20:21:00;;;;;;;30.90;15.10;;;;;;;-1.65;77.36;100674.55;208127;1318;140634;-68
2021/12/21 20:26:04;;;;;;;19.80;12.80;;;;;;;-1.61;77.74;100678.22;208296;1318;140402;-68
2021/12/21 20:31:06;;;;;;;15.40;9.80;;;;;;;-1.59;77.61;100675.42;206937;1318;140887;-67
2021/12/21 20:36:10;;;;;;;15.30;7.90;;;;;;;-1.62;77.40;100676.23;207237;1316;139899;-67
2021/12/21 20:41:14;;;;;;;14.90;9.10;;;;;;;-1.64;77.32;100672.21;206940;1316;140792;-68
2021/12/21 20:46:17;;;;;;;17.90;7.30;;;;;;;-1.70;77.61;100669.85;207217;1316;140267;-67
2021/12/21 20:51:23;;;;;;;10.50;6.60;;;;;;;-1.72;77.55;100673.92;207683;1316;140147;-68
2021/12/21 20:56:28;;;;;;;12.90;6.70;;;;;;;-1.80;77.45;100676.47;207258;1318;140070;-67
2021/12/21 21:01:32;;;;;;;12.70;7.60;;;;;;;-1.87;77.41;100675.17;207864;1316;159813;-68
2021/12/21 21:06:34;;;;;;;11.50;7.50;;;;;;;-1.87;77.43;100679.43;207483;1318;140045;-67
2021/12/21 21:11:44;;;;;;;12.30;8.30;;;;;;;-1.92;77.24;100686.86;208052;1316;140709;-68
2021/12/21 21:16:47;;;;;;;19.80;10.30;;;;;;;-2.05;77.34;100695.92;207563;1316;139636;-68
2021/12/21 21:21:50;;;;;;;18.20;9.20;;;;;;;-2.16;77.45;100694.74;207157;1317;140107;-70
2021/12/21 21:26:54;;;;;;;13.00;8.00;;;;;;;-2.26;77.41;100699.83;206921;1318;140941;-68
2021/12/21 21:32:00;;;;;;;18.20;9.90;;;;;;;-2.41;77.53;100697.17;208605;1316;139643;-68
2021/12/21 21:37:04;;;;;;;15.40;8.90;;;;;;;-2.54;77.31;100701.66;207377;1319;139871;-68
2021/12/21 21:42:08;;;;;;;15.70;8.70;;;;;;;-2.60;77.41;100697.06;206843;1318;140375;-67
2021/12/21 21:47:11;;;;;;;19.40;9.90;;;;;;;-2.59;77.45;100700.33;207302;1317;141176;-67
2021/12/21 21:52:14;;;;;;;21.90;10.50;;;;;;;-2.63;77.62;100705.33;207962;1318;455416;-67
2021/12/21 21:57:20;;;;;;;14.90;9.40;;;;;;;-2.67;77.73;100709.36;208965;1318;139984;-68
2021/12/21 22:02:23;;;;;;;20.60;10.70;;;;;;;-2.70;78.01;100711.48;207847;1316;140350;-67
2021/12/21 22:07:26;;;;;;;21.00;11.10;;;;;;;-2.69;78.19;100716.77;208936;1317;139694;-67
2021/12/21 22:12:29;;;;;;;22.40;11.10;;;;;;;-2.66;78.28;100714.51;208602;1318;140561;-67
2021/12/21 22:17:33;;;;;;;20.30;11.50;;;;;;;-2.64;77.99;100718.98;208847;1318;140624;-67
2021/12/21 22:22:37;;;;;;;23.40;12.90;;;;;;;-2.61;78.15;100720.46;208158;1319;140534;-67
2021/12/21 22:27:40;;;;;;;26.20;14.30;;;;;;;-2.56;78.30;100723.23;208715;1318;140155;-68
2021/12/21 22:32:43;;;;;;;18.40;12.50;;;;;;;-2.54;78.34;100728.45;208752;1318;140182;-68
2021/12/21 22:37:46;;;;;;;32.70;17.10;;;;;;;-2.62;78.03;100724.08;208016;1318;140772;-66
2021/12/21 22:42:49;;;;;;;24.70;13.50;;;;;;;-2.75;77.77;100722.30;206965;1316;140415;-67
2021/12/21 22:47:52;;;;;;;26.20;17.20;;;;;;;-2.93;77.80;100728.52;208106;1316;139926;-68
2021/12/21 22:52:55;;;;;;;32.80;14.90;;;;;;;-3.03;77.83;100732.95;207336;1316;141160;-66
2021/12/21 22:57:59;;;;;;;28.20;16.00;;;;;;;-3.08;77.90;100729.55;208017;1317;140162;-66
2021/12/21 23:03:02;;;;;;;29.50;17.10;;;;;;;-3.16;78.05;100735.04;207409;1318;141764;-67
2021/12/21 23:08:06;;;;;;;29.50;16.20;;;;;;;-3.28;77.79;100736.02;208214;1318;139947;-67
2021/12/21 23:13:10;;;;;;;26.40;16.80;;;;;;;-3.46;77.96;100742.29;207487;1318;139606;-68
2021/12/21 23:18:13;;;;;;;35.10;19.20;;;;;;;-3.58;77.87;100736.64;207795;1318;140417;-69
2021/12/21 23:23:17;;;;;;;37.60;19.80;;;;;;;-3.67;77.83;100745.91;207536;1316;141163;-67
2021/12/21 23:28:20;;;;;;;46.50;23.40;;;;;;;-3.71;78.13;100743.95;206838;1318;141481;-67
2021/12/21 23:33:23;;;;;;;38.70;19.00;;;;;;;-3.75;78.33;100753.25;206815;1318;140982;-67
2021/12/21 23:38:27;;;;;;;41.90;21.10;;;;;;;-3.78;78.40;100757.65;207472;1317;141092;-66
2021/12/21 23:43:30;;;;;;;34.30;16.60;;;;;;;-3.88;78.24;100754.61;207031;1318;141633;-66
2021/12/21 23:48:36;;;;;;;29.20;16.40;;;;;;;-4.05;77.94;100761.33;207790;1318;141901;-67
2021/12/21 23:53:41;;;;;;;24.70;15.20;;;;;;;-4.20;77.84;100759.52;208788;1318;140489;-67
2021/12/21 23:58:44;;;;;;;34.00;16.10;;;;;;;-4.28;77.94;100760.94;209054;1318;141152;-68
